createdAt,value
2023-01-23T00:00:59.564Z,91.10
2023-01-23T00:04:03.775Z,91.04
2023-01-23T00:07:07.077Z,90.94
2023-01-23T00:10:11.433Z,90.80
2023-01-23T00:13:14.496Z,90.54
2023-01-23T00:16:20.820Z,91.12
2023-01-23T00:19:24.544Z,90.97
2023-01-23T00:22:27.669Z,91.01
2023-01-23T00:25:30.796Z,91.03
2023-01-23T00:28:34.841Z,90.84
2023-01-23T00:31:39.656Z,90.87
2023-01-23T00:34:42.651Z,90.84
2023-01-23T00:37:45.893Z,91.20
2023-01-23T00:40:49.128Z,90.90
2023-01-23T00:43:52.414Z,90.60
2023-01-23T00:46:55.491Z,90.71
2023-01-23T00:49:59.347Z,90.84
2023-01-23T00:53:02.592Z,90.99
2023-01-23T00:56:06.440Z,90.86
2023-01-23T00:59:10.218Z,90.88
2023-01-23T01:02:13.732Z,90.81
2023-01-23T01:05:18.487Z,90.95
2023-01-23T01:08:21.628Z,90.74
2023-01-23T01:11:25.171Z,91.06
2023-01-23T01:14:28.235Z,90.81
2023-01-23T01:17:31.321Z,90.99
2023-01-23T01:20:34.266Z,91.02
2023-01-23T01:23:38.708Z,91.03
2023-01-23T01:26:41.941Z,91.00
2023-01-23T01:29:45.229Z,91.26
2023-01-23T01:32:48.228Z,91.09
2023-01-23T01:35:51.432Z,91.16
2023-01-23T01:38:54.722Z,91.22
2023-01-23T01:41:57.850Z,91.44
2023-01-23T01:45:02.524Z,91.38
2023-01-23T01:48:06.035Z,91.30
2023-01-23T01:51:39.335Z,91.77
2023-01-23T01:55:03.193Z,91.88
2023-01-23T01:58:07.709Z,91.69
2023-01-23T02:01:11.031Z,91.97
2023-01-23T02:04:15.765Z,91.89
2023-01-23T02:07:26.700Z,91.94
2023-01-23T02:10:29.988Z,91.78
2023-01-23T02:13:39.510Z,91.64
2023-01-23T02:16:50.296Z,91.73
2023-01-23T02:20:19.638Z,91.47
2023-01-23T02:23:40.351Z,91.56
2023-01-23T02:26:46.285Z,92.81
2023-01-23T02:29:52.245Z,92.44
2023-01-23T02:32:55.643Z,92.42
2023-01-23T02:36:00.120Z,92.07
2023-01-23T02:39:06.379Z,92.21
2023-01-23T02:42:10.002Z,92.20
2023-01-23T02:45:13.403Z,91.83
2023-01-23T02:48:16.947Z,92.00
2023-01-23T02:51:22.137Z,92.09
2023-01-23T02:54:25.742Z,92.11
2023-01-23T02:57:28.913Z,92.09
2023-01-23T03:00:32.015Z,91.97
2023-01-23T03:03:35.259Z,91.90
2023-01-23T03:06:38.321Z,92.31
2023-01-23T03:09:42.700Z,92.29
2023-01-23T03:12:45.979Z,92.20
2023-01-23T03:15:53.271Z,92.02
2023-01-23T03:18:57.783Z,92.20
2023-01-23T03:22:01.032Z,92.12
2023-01-23T03:25:04.342Z,91.78
2023-01-23T03:28:27.534Z,92.21
2023-01-23T03:31:30.627Z,92.04
2023-01-23T03:34:34.203Z,91.96
2023-01-23T03:37:37.412Z,92.10
2023-01-23T03:40:59.110Z,92.30
2023-01-23T03:44:02.406Z,92.28
2023-01-23T03:47:06.361Z,92.25
2023-01-23T03:50:09.979Z,92.18
2023-01-23T03:53:13.561Z,92.27
2023-01-23T03:56:16.619Z,92.71
2023-01-23T03:59:20.132Z,92.53
2023-01-23T04:02:24.164Z,92.73
2023-01-23T04:05:27.392Z,92.45
2023-01-23T04:08:30.526Z,92.50
2023-01-23T04:11:33.858Z,92.57
2023-01-23T04:14:37.845Z,92.50
2023-01-23T04:17:42.498Z,93.18
2023-01-23T04:20:45.787Z,92.93
2023-01-23T04:23:49.182Z,92.81
2023-01-23T04:26:52.944Z,92.77
2023-01-23T04:29:56.105Z,92.89
2023-01-23T04:32:59.381Z,92.78
2023-01-23T04:36:05.300Z,92.39
2023-01-23T04:39:08.647Z,92.54
2023-01-23T04:42:11.820Z,92.22
2023-01-23T04:45:14.843Z,92.69
2023-01-23T04:48:17.885Z,92.59
2023-01-23T04:51:21.542Z,92.39
2023-01-23T04:54:24.628Z,92.48
2023-01-23T04:57:27.814Z,92.63
2023-01-23T05:00:31.102Z,92.58
2023-01-23T05:03:35.335Z,92.61
2023-01-23T05:06:38.999Z,92.74
2023-01-23T05:09:42.664Z,92.58
2023-01-23T05:12:45.724Z,92.90
2023-01-23T05:15:48.769Z,93.09
2023-01-23T05:18:51.827Z,92.84
2023-01-23T05:21:55.136Z,92.92
2023-01-23T05:24:58.288Z,92.94
2023-01-23T05:28:02.270Z,93.07
2023-01-23T05:31:05.774Z,92.90
2023-01-23T05:34:09.155Z,93.26
2023-01-23T05:37:12.585Z,93.17
2023-01-23T05:40:15.692Z,93.42
2023-01-23T05:43:18.905Z,93.12
2023-01-23T05:46:21.980Z,93.09
2023-01-23T05:49:25.329Z,92.98
2023-01-23T05:52:28.630Z,93.05
2023-01-23T05:55:31.915Z,92.97
2023-01-23T05:58:35.637Z,93.13
2023-01-23T06:01:38.664Z,93.33
2023-01-23T06:04:42.052Z,93.08
2023-01-23T06:07:45.394Z,92.94
2023-01-23T06:10:48.473Z,92.81
2023-01-23T06:13:52.028Z,93.01
2023-01-23T06:16:55.292Z,92.88
2023-01-23T06:19:58.873Z,92.86
2023-01-23T06:23:02.077Z,92.78
2023-01-23T06:26:05.303Z,92.77
2023-01-23T06:29:08.412Z,92.65
2023-01-23T06:32:11.500Z,92.71
2023-01-23T06:35:14.665Z,92.67
2023-01-23T06:38:17.988Z,92.38
2023-01-23T06:41:21.961Z,92.24
2023-01-23T06:44:25.421Z,92.32
2023-01-23T06:47:28.902Z,92.40
2023-01-23T06:50:31.966Z,92.59
2023-01-23T06:53:35.252Z,92.43
2023-01-23T06:56:38.477Z,92.27
2023-01-23T06:59:41.645Z,92.16
2023-01-23T07:02:45.719Z,92.10
2023-01-23T07:05:50.251Z,92.03
2023-01-23T07:08:53.292Z,91.69
2023-01-23T07:11:56.405Z,92.04
2023-01-23T07:15:02.022Z,91.94
2023-01-23T07:18:05.135Z,91.77
2023-01-23T07:21:08.459Z,91.65
2023-01-23T07:24:11.620Z,91.57
2023-01-23T07:27:15.583Z,91.58
2023-01-23T07:30:19.499Z,91.58
2023-01-23T07:33:22.849Z,91.53
2023-01-23T07:36:26.042Z,91.70
2023-01-23T07:39:30.007Z,91.59
2023-01-23T07:42:32.990Z,91.59
2023-01-23T07:45:36.254Z,91.70
2023-01-23T07:48:39.229Z,91.43
2023-01-23T07:51:42.292Z,91.33
2023-01-23T07:54:45.296Z,91.49
2023-01-23T07:57:48.239Z,90.98
2023-01-23T08:00:51.838Z,90.69
2023-01-23T08:03:54.806Z,90.38
2023-01-23T08:06:57.824Z,90.23
2023-01-23T08:10:00.782Z,90.30
2023-01-23T08:13:03.700Z,89.61
2023-01-23T08:16:07.619Z,88.74
2023-01-23T08:19:10.926Z,88.28
2023-01-23T08:22:13.900Z,88.06
2023-01-23T08:25:17.104Z,87.71
2023-01-23T08:28:20.175Z,87.20
2023-01-23T08:31:23.260Z,86.96
2023-01-23T08:34:26.323Z,85.54
2023-01-23T08:37:29.473Z,85.81
2023-01-23T08:40:32.512Z,85.63
2023-01-23T08:43:35.524Z,85.07
2023-01-23T08:46:38.593Z,84.92
2023-01-23T08:49:41.576Z,84.72
2023-01-23T08:52:44.452Z,84.96
2023-01-23T08:55:47.582Z,85.36
2023-01-23T08:58:51.603Z,85.76
2023-01-23T09:01:54.779Z,85.70
2023-01-23T09:04:57.683Z,85.68
2023-01-23T09:08:00.686Z,85.95
2023-01-23T09:11:06.034Z,86.19
2023-01-23T09:14:08.940Z,86.18
2023-01-23T09:17:12.192Z,86.06
2023-01-23T09:20:15.774Z,86.03
2023-01-23T09:23:19.079Z,85.96
2023-01-23T09:26:22.093Z,85.98
2023-01-23T09:29:25.058Z,85.69
2023-01-23T09:32:27.967Z,85.72
2023-01-23T09:35:31.306Z,85.66
2023-01-23T09:38:34.522Z,85.50
2023-01-23T09:41:39.421Z,85.59
2023-01-23T09:44:46.433Z,85.59
2023-01-23T09:48:32.060Z,85.58
2023-01-23T09:51:38.164Z,85.50
2023-01-23T09:54:46.598Z,85.81
2023-01-23T09:58:01.512Z,85.76
2023-01-23T10:01:04.819Z,85.96
2023-01-23T10:04:12.094Z,85.66
2023-01-23T10:07:40.613Z,85.76
2023-01-23T10:10:58.378Z,85.88
2023-01-23T10:14:23.478Z,85.79
2023-01-23T10:17:33.287Z,85.50
2023-01-23T10:20:42.615Z,85.36
2023-01-23T10:24:17.328Z,85.27
2023-01-23T10:27:38.329Z,85.05
2023-01-23T10:30:42.256Z,84.58
2023-01-23T10:34:12.504Z,84.38
2023-01-23T10:37:18.150Z,84.01
2023-01-23T10:40:42.799Z,83.70
2023-01-23T10:43:49.846Z,83.50
2023-01-23T10:46:56.538Z,82.58
2023-01-23T10:49:59.679Z,82.12
2023-01-23T10:53:12.383Z,81.80
2023-01-23T10:56:19.623Z,81.45
2023-01-23T10:59:40.376Z,81.00
2023-01-23T11:02:44.333Z,80.62
2023-01-23T11:05:56.033Z,80.38
2023-01-23T11:09:01.295Z,80.00
2023-01-23T11:12:06.417Z,79.93
2023-01-23T11:15:22.731Z,78.57
2023-01-23T11:18:42.681Z,78.56
2023-01-23T11:21:59.775Z,77.64
2023-01-23T11:25:42.186Z,77.07
2023-01-23T11:28:51.612Z,76.60
2023-01-23T11:32:10.587Z,76.47
2023-01-23T11:35:18.365Z,76.52
2023-01-23T11:38:33.280Z,75.91
2023-01-23T11:41:37.790Z,76.45
2023-01-23T11:44:46.571Z,76.51
2023-01-23T11:48:10.015Z,76.71
2023-01-23T11:51:21.779Z,76.87
2023-01-23T11:55:03.030Z,77.10
2023-01-23T11:58:15.498Z,77.86
2023-01-23T12:02:04.025Z,77.76
2023-01-23T12:05:40.908Z,78.25
2023-01-23T12:08:54.935Z,78.71
2023-01-23T12:12:26.336Z,78.74
2023-01-23T12:15:44.692Z,78.94
2023-01-23T12:19:03.086Z,79.31
2023-01-23T12:22:25.345Z,79.48
2023-01-23T12:25:34.259Z,79.59
2023-01-23T12:28:50.199Z,79.87
2023-01-23T12:32:10.586Z,80.09
2023-01-23T12:35:57.049Z,80.24
2023-01-23T12:39:38.280Z,80.55
2023-01-23T12:42:53.320Z,80.38
2023-01-23T12:46:06.029Z,80.61
2023-01-23T12:49:33.986Z,80.50
2023-01-23T12:52:44.751Z,80.57
2023-01-23T12:55:51.264Z,80.66
2023-01-23T12:59:20.561Z,80.75
2023-01-23T13:03:03.090Z,81.01
2023-01-23T13:06:49.040Z,81.18
2023-01-23T13:10:05.771Z,81.38
2023-01-23T13:13:11.404Z,81.60
2023-01-23T13:16:58.573Z,81.69
2023-01-23T13:20:48.577Z,81.98
2023-01-23T13:24:16.125Z,82.41
2023-01-23T13:27:47.909Z,82.63
2023-01-23T13:34:32.843Z,83.20
2023-01-23T13:37:38.766Z,83.47
2023-01-23T13:41:01.602Z,83.80
2023-01-23T13:44:27.209Z,83.85
2023-01-23T14:25:33.653Z,87.99
2023-01-23T14:28:36.817Z,88.41
2023-01-23T14:31:42.358Z,88.64
2023-01-23T14:34:45.482Z,88.95
2023-01-23T14:37:48.990Z,89.11
2023-01-23T14:40:52.000Z,89.46
2023-01-23T14:43:57.539Z,89.85
2023-01-23T14:47:01.252Z,89.63
2023-01-23T14:50:09.882Z,90.44
2023-01-23T14:53:17.473Z,90.49
2023-01-23T14:56:22.719Z,90.82
2023-01-23T14:59:34.187Z,90.92
2023-01-23T15:02:37.103Z,91.32
2023-01-23T15:05:41.733Z,91.42
2023-01-23T15:08:45.581Z,91.24
2023-01-23T15:11:48.470Z,91.50
2023-01-23T15:14:56.422Z,91.71
2023-01-23T15:18:01.640Z,91.98
2023-01-23T15:21:07.430Z,92.23
2023-01-23T15:24:10.334Z,92.27
2023-01-23T15:27:34.684Z,92.23
2023-01-23T15:30:51.200Z,92.71
2023-01-23T15:33:56.050Z,93.10
2023-01-23T15:37:06.708Z,92.99
2023-01-23T15:40:18.663Z,93.28
2023-01-23T15:43:21.503Z,93.23
2023-01-23T15:46:24.459Z,93.38
2023-01-23T15:49:28.909Z,93.49
2023-01-23T15:52:50.504Z,93.33
2023-01-23T15:55:53.540Z,93.56
2023-01-23T15:58:56.463Z,93.44
2023-01-23T16:01:59.307Z,93.73
2023-01-23T16:05:02.367Z,93.90
2023-01-23T16:08:12.214Z,93.93
2023-01-23T16:11:15.563Z,94.13
2023-01-23T16:14:19.947Z,93.94
2023-01-23T16:17:23.539Z,93.99
2023-01-23T16:20:45.863Z,94.26
2023-01-23T16:23:48.975Z,94.34
2023-01-23T16:26:52.178Z,94.18
2023-01-23T16:29:55.445Z,94.68
2023-01-23T16:32:58.461Z,94.58
2023-01-23T16:36:01.853Z,94.55
2023-01-23T16:39:06.156Z,94.85
2023-01-23T16:42:30.656Z,94.65
2023-01-23T16:45:33.465Z,94.74
2023-01-23T16:48:36.658Z,94.43
2023-01-23T16:51:44.744Z,94.64
2023-01-23T16:54:47.660Z,94.81
2023-01-23T16:57:54.411Z,94.53
2023-01-23T17:01:03.192Z,94.92
2023-01-23T17:04:06.414Z,94.91
2023-01-23T17:07:27.144Z,94.88
2023-01-23T17:10:45.361Z,94.79
2023-01-23T17:13:56.263Z,94.88
2023-01-23T17:17:11.968Z,95.05
2023-01-23T17:20:15.051Z,94.91
2023-01-23T17:23:18.155Z,95.04
2023-01-23T17:26:21.104Z,95.28
2023-01-23T17:29:24.757Z,94.89
2023-01-23T17:32:33.093Z,95.12
2023-01-23T17:35:37.597Z,95.16
2023-01-23T17:38:42.237Z,95.10
2023-01-23T17:41:45.189Z,95.20
2023-01-23T17:44:49.051Z,95.15
2023-01-23T17:47:54.977Z,95.17
2023-01-23T17:50:57.926Z,95.16
2023-01-23T17:54:00.810Z,95.23
2023-01-23T17:57:04.446Z,95.23
2023-01-23T18:00:08.332Z,95.25
2023-01-23T18:03:25.022Z,95.47
2023-01-23T18:06:30.336Z,95.42
2023-01-23T18:09:34.365Z,95.47
2023-01-23T18:13:19.714Z,95.38
2023-01-23T18:16:30.245Z,95.57
2023-01-23T18:19:33.508Z,95.49
2023-01-23T18:22:36.698Z,95.73
2023-01-23T18:25:46.335Z,95.81
2023-01-23T18:29:11.223Z,95.66
2023-01-23T18:32:42.581Z,95.66
2023-01-23T18:35:57.861Z,95.77
2023-01-23T18:39:32.187Z,95.75
2023-01-23T18:42:41.311Z,95.72
2023-01-23T18:45:44.778Z,95.92
2023-01-23T18:48:50.390Z,95.87
2023-01-23T18:52:09.678Z,95.63
2023-01-23T18:55:27.659Z,95.94
2023-01-23T18:58:40.019Z,95.86
2023-01-23T19:01:45.679Z,95.95
2023-01-23T19:05:21.445Z,95.75
2023-01-23T19:08:30.787Z,95.73
2023-01-23T19:11:56.561Z,95.85
2023-01-23T19:15:02.447Z,95.87
2023-01-23T19:18:42.017Z,95.87
2023-01-23T19:21:46.695Z,95.83
2023-01-23T19:24:49.778Z,95.98
2023-01-23T19:27:56.059Z,95.82
2023-01-23T19:30:59.412Z,95.93
2023-01-23T19:34:03.653Z,95.98
2023-01-23T19:37:08.131Z,95.95
2023-01-23T19:40:15.997Z,95.92
2023-01-23T19:43:20.126Z,96.00
2023-01-23T19:46:30.341Z,95.78
2023-01-23T19:49:33.269Z,95.83
2023-01-23T19:52:36.135Z,96.17
2023-01-23T19:55:38.977Z,95.85
2023-01-23T19:58:42.198Z,96.22
2023-01-23T20:01:48.534Z,96.16
2023-01-23T20:04:51.520Z,96.04
2023-01-23T20:07:54.718Z,95.97
2023-01-23T20:10:57.718Z,96.20
2023-01-23T20:14:00.519Z,96.05
2023-01-23T20:17:03.425Z,96.08
2023-01-23T20:20:09.637Z,96.18
2023-01-23T20:23:13.439Z,96.24
2023-01-23T20:26:18.779Z,96.07
2023-01-23T20:29:21.697Z,96.11
2023-01-23T20:32:24.506Z,96.19
2023-01-23T20:35:29.703Z,96.22
2023-01-23T20:38:32.887Z,96.05
2023-01-23T20:41:36.976Z,96.34
2023-01-23T20:44:40.842Z,95.91
2023-01-23T20:47:44.828Z,96.07
2023-01-23T20:50:56.640Z,96.12
2023-01-23T20:54:00.300Z,95.86
2023-01-23T20:57:03.123Z,96.00
2023-01-23T21:00:06.423Z,96.12
2023-01-23T21:03:09.614Z,95.94
2023-01-23T21:06:14.451Z,95.95
2023-01-23T21:09:17.457Z,96.08
2023-01-23T21:12:20.342Z,96.06
2023-01-23T21:15:23.623Z,96.13
2023-01-23T21:18:27.277Z,96.05
2023-01-23T21:21:30.106Z,96.23
2023-01-23T21:24:34.763Z,96.03
2023-01-23T21:27:37.867Z,96.17
2023-01-23T21:30:40.894Z,96.18
2023-01-23T21:33:44.970Z,96.10
2023-01-23T21:36:47.837Z,96.01
2023-01-23T21:39:50.656Z,96.05
2023-01-23T21:42:53.590Z,95.91
2023-01-23T21:45:57.958Z,95.89
2023-01-23T21:49:00.894Z,96.34
2023-01-23T21:52:03.800Z,96.15
2023-01-23T21:55:10.101Z,96.23
2023-01-23T21:58:12.906Z,95.97
2023-01-23T22:01:58.105Z,95.94
2023-01-23T22:05:00.996Z,96.22
2023-01-23T22:08:04.698Z,96.21
2023-01-23T22:11:09.734Z,96.36
2023-01-23T22:14:13.379Z,96.07
2023-01-23T22:17:16.266Z,95.93
2023-01-23T22:20:19.142Z,96.32
2023-01-23T22:23:22.249Z,95.94
2023-01-23T22:26:25.209Z,96.24
2023-01-23T22:29:28.677Z,96.07
2023-01-23T22:32:34.587Z,96.10
2023-01-23T22:35:40.628Z,96.04
2023-01-23T22:38:43.799Z,95.93
2023-01-23T22:41:47.768Z,95.80
2023-01-23T22:44:50.694Z,95.88
2023-01-23T22:47:53.742Z,95.89
2023-01-23T22:50:59.998Z,95.83
2023-01-23T22:54:03.374Z,95.74
2023-01-23T22:57:06.233Z,95.76
2023-01-23T23:00:15.424Z,95.68
2023-01-23T23:03:19.344Z,96.00
2023-01-23T23:06:22.411Z,95.67
2023-01-23T23:09:25.279Z,95.77
2023-01-23T23:12:28.603Z,95.99
2023-01-23T23:15:31.361Z,95.80
2023-01-23T23:18:34.888Z,95.84
2023-01-23T23:21:38.711Z,96.02
2023-01-23T23:24:41.868Z,95.62
2023-01-23T23:27:44.594Z,95.87
2023-01-23T23:30:48.081Z,95.46
2023-01-23T23:33:50.926Z,95.82
2023-01-23T23:36:53.841Z,95.53
2023-01-23T23:39:56.829Z,95.61
2023-01-23T23:42:59.802Z,95.75
2023-01-23T23:46:05.051Z,95.88
2023-01-23T23:49:08.059Z,95.61
2023-01-23T23:52:10.835Z,95.66
2023-01-23T23:55:14.235Z,95.67
2023-01-23T23:58:17.238Z,95.73
